M I D A S
Marine Information and Data Acquisition System
Tripno 973 of the Zeeleeuw from 2005-10-18 06:32:33 to 2005-10-18 12:00:50
Back to CruiseResearch ActivitiesStationsMapUnderway DataData graphs

EquipmentUnitsComment
TimeDGPSUTC
LatitudeDGPSDM.mWGS84
LongitudeDGPSDM.mWGS84
HeadingGyrodeg 
SOGDGPSknotsSpeed over ground
COGDGPSdegCourse over ground
DepthEcho soundermeters200 kHz
Missing or incorrect values are displayed as -999
Navigation data collected by the RV Zeeleeuw from 2005-10-18 06:32:07 to 2005-10-18 12:07:32
Time Latitude Longitude Heading SOG COG Depth
2005-10-18 06:33:11 51°13.618 2°56.04 118.1 3.4 296 -999
2005-10-18 06:34:11 51°13.644 2°55.946 118.2 4.3 296 -999
2005-10-18 06:35:13 51°13.688 2°55.835 128.4 5 305 -999
2005-10-18 06:36:11 51°13.746 2°55.727 141.9 5.8 317 -999
2005-10-18 06:37:13 51°13.835 2°55.645 167.5 6.1 342 -999
2005-10-18 06:38:11 51°13.921 2°55.653 208.1 4.6 19 -999
2005-10-18 06:39:11 51°13.95 2°55.66 255.8 2.5 269 9.1
2005-10-18 06:40:11 51°14.003 2°55.54 317.8 6.7 309 8.6
2005-10-18 06:41:11 51°14.132 2°55.413 335.3 10.2 331 -999
2005-10-18 06:42:11 51°14.268 2°55.242 317.1 10.6 311 8.9
2005-10-18 06:43:12 51°14.388 2°55.01 314.4 11.5 308 8.7
2005-10-18 06:44:11 51°14.554 2°54.821 345 12.5 335 8
2005-10-18 06:45:11 51°14.743 2°54.684 345.5 12.6 333 7.7
2005-10-18 06:46:11 51°14.918 2°54.504 335.1 12.4 327 7
2005-10-18 06:47:12 51°15.105 2°54.383 346.7 11.8 336 6.5
2005-10-18 06:48:11 51°15.282 2°54.249 347.2 12.1 337 7
2005-10-18 06:49:11 51°15.46 2°54.075 333.8 12.9 322 7.9
2005-10-18 06:50:11 51°15.646 2°53.909 345.9 12.9 332 8.8
2005-10-18 06:51:12 51°15.839 2°53.747 344.7 12.9 332 9.3
2005-10-18 06:52:11 51°16.024 2°53.595 343.9 12.7 333 9.7
2005-10-18 06:53:12 51°16.214 2°53.431 344.1 12.7 332 10.1
2005-10-18 06:54:11 51°16.396 2°53.273 345.3 12.7 333 10.4
2005-10-18 06:55:11 51°16.585 2°53.125 344.4 12.6 334 10.1
2005-10-18 06:56:12 51°16.777 2°52.984 344.7 12.5 337 9
2005-10-18 06:57:12 51°16.951 2°52.83 335.7 12.1 326 7.7
2005-10-18 06:58:12 51°17.132 2°52.675 341.8 12.4 332 8
2005-10-18 06:59:11 51°17.31 2°52.521 341.7 12.4 331 8.5
2005-10-18 07:00:11 51°17.491 2°52.36 341.1 12.4 331 8.8
2005-10-18 07:01:11 51°17.671 2°52.196 341 12.4 330 8.7
2005-10-18 07:02:11 51°17.85 2°52.033 342 12.4 331 8.9
2005-10-18 07:03:11 51°18.03 2°51.868 341.5 12.5 331 9
2005-10-18 07:04:12 51°18.214 2°51.7 341.9 12.5 330 9.9
2005-10-18 07:05:12 51°18.396 2°51.532 341.8 12.6 330 11
2005-10-18 07:06:12 51°18.576 2°51.362 341.7 12.6 329 12.4
2005-10-18 07:07:12 51°18.759 2°51.196 344.7 12.6 331 13
2005-10-18 07:08:11 51°18.941 2°51.046 346.4 12.4 333 13.5
2005-10-18 07:09:11 51°19.126 2°50.895 346.5 12.5 333 13.4
2005-10-18 07:10:11 51°19.31 2°50.745 346.4 12.5 334 12.7
2005-10-18 07:11:11 51°19.495 2°50.597 346.7 12.6 334 11.1
2005-10-18 07:12:11 51°19.684 2°50.45 345.8 12.8 332 10.5
2005-10-18 07:13:11 51°19.874 2°50.302 345.4 12.6 334 12.8
2005-10-18 07:14:11 51°20.063 2°50.153 346.2 12.7 334 14.3
2005-10-18 07:15:11 51°20.252 2°50.002 346.2 12.8 334 17.2
2005-10-18 07:16:11 51°20.44 2°49.848 346.3 12.6 332 20.2
2005-10-18 07:17:11 51°20.628 2°49.688 346.1 12.8 332 21.9
2005-10-18 07:18:11 51°20.817 2°49.527 346.1 12.8 333 21.9
2005-10-18 07:19:11 51°21.005 2°49.365 346.1 12.9 331 21.4
2005-10-18 07:20:11 51°21.196 2°49.202 346.8 12.9 334 20.7
2005-10-18 07:21:11 51°21.386 2°49.039 346.6 13 332 20.3
2005-10-18 07:22:11 51°21.576 2°48.872 346.1 13.2 332 21.5
2005-10-18 07:23:11 51°21.767 2°48.705 346.2 13.1 332 22.4
2005-10-18 07:24:11 51°21.957 2°48.542 345.4 12.9 331 22.6
2005-10-18 07:25:11 51°22.142 2°48.361 343.3 13.1 328 22.8
2005-10-18 07:26:11 51°22.321 2°48.176 336.1 12.7 325 19.6
2005-10-18 07:27:11 51°22.487 2°47.976 337 12.2 325 17.1
2005-10-18 07:28:11 51°22.658 2°47.786 336 12.4 325 16.9
2005-10-18 07:29:11 51°22.825 2°47.585 336.5 12.6 323 19.1
2005-10-18 07:30:11 51°22.993 2°47.381 338.1 12.7 324 19.1
2005-10-18 07:31:11 51°23.165 2°47.185 338.2 12.7 327 20
2005-10-18 07:32:11 51°23.335 2°46.984 337 12.6 325 21.5
2005-10-18 07:33:11 51°23.508 2°46.784 338.5 12.8 324 24.2
2005-10-18 07:34:11 51°23.686 2°46.621 350.3 12.3 336 25.3
2005-10-18 07:35:11 51°23.878 2°46.565 11.3 11.5 -999 26.2
2005-10-18 07:36:11 51°24.055 2°46.638 33.5 10.8 23 28.4
2005-10-18 07:37:11 51°24.211 2°46.782 43.4 10.7 38 26.9
2005-10-18 07:38:11 51°24.346 2°46.968 48.6 10.7 40 29.5
2005-10-18 07:39:11 51°24.47 2°47.171 57.6 10.6 53 28.4
2005-10-18 07:40:11 51°24.577 2°47.396 59 10.6 53 30.1
2005-10-18 07:41:11 51°24.678 2°47.624 59.8 10.4 55 28.9
2005-10-18 07:42:12 51°24.772 2°47.864 64.2 10.5 61 28.4
2005-10-18 07:43:11 51°24.856 2°48.103 66.7 10.6 63 27.4
2005-10-18 07:44:11 51°24.931 2°48.356 67.6 10.5 64 26.4
2005-10-18 07:45:11 51°25.007 2°48.607 67.7 10.4 64 23.7
2005-10-18 07:46:11 51°25.083 2°48.858 67 10.4 64 23.3
2005-10-18 07:47:11 51°25.158 2°49.105 68.1 10.4 64 22.4
2005-10-18 07:48:11 51°25.23 2°49.356 69.5 10.4 67 21.8
2005-10-18 07:49:11 51°25.297 2°49.61 69.7 10.2 67 21.8
2005-10-18 07:50:11 51°25.361 2°49.867 72.5 10.4 71 22
2005-10-18 07:51:11 51°25.418 2°50.13 72.3 10.4 70 22.1
2005-10-18 07:52:11 51°25.474 2°50.39 72.4 10.4 71 22.6
2005-10-18 07:53:11 51°25.53 2°50.652 72.3 10.3 71 22.5
2005-10-18 07:54:11 51°25.587 2°50.913 72.5 10.4 70 22.8
2005-10-18 07:55:11 51°25.643 2°51.173 71.8 10.3 71 22.6
2005-10-18 07:56:11 51°25.698 2°51.429 72.7 10.3 71 22.5
2005-10-18 07:57:12 51°25.755 2°51.693 72.1 10.3 71 26
2005-10-18 07:58:12 51°25.812 2°51.958 72.2 10.7 71 27.6
2005-10-18 07:59:11 51°25.867 2°52.219 72.7 10.5 73 25.5
2005-10-18 08:00:11 51°25.924 2°52.481 72.1 10.5 71 26.9
2005-10-18 08:01:11 51°25.982 2°52.743 72.5 10.6 71 26.6
2005-10-18 08:02:12 51°26.04 2°53.013 72.7 10.5 72 27.3
2005-10-18 08:03:11 51°26.101 2°53.274 68.2 10.5 66 29.6
2005-10-18 08:04:11 51°26.175 2°53.532 68.2 10.7 65 30.9
2005-10-18 08:05:11 51°26.25 2°53.792 68 10.6 65 30.6
2005-10-18 08:06:11 51°26.324 2°54.048 68.1 10.7 64 28.6
2005-10-18 08:07:12 51°26.397 2°54.306 67.7 10.5 65 23.3
2005-10-18 08:08:11 51°26.467 2°54.553 67.7 10.4 66 21.2
2005-10-18 08:09:12 51°26.537 2°54.811 68.4 10.4 67 25.4
2005-10-18 08:10:12 51°26.607 2°55.064 67.4 10.4 64 27.1
2005-10-18 08:11:11 51°26.675 2°55.317 68.3 10.5 66 24.2
2005-10-18 08:12:11 51°26.746 2°55.576 67.9 10.8 66 25.8
2005-10-18 08:13:11 51°26.817 2°55.838 68 10.8 67 26.3
2005-10-18 08:14:11 51°26.89 2°56.102 68.1 10.8 67 26.4
2005-10-18 08:15:11 51°26.962 2°56.363 68.4 10.7 65 24.4
2005-10-18 08:16:11 51°27.031 2°56.622 68.7 10.5 66 19.5
2005-10-18 08:17:11 51°27.097 2°56.875 68.7 10.1 68 20.5
2005-10-18 08:18:11 51°27.166 2°57.131 67.7 10.5 66 23.8
2005-10-18 08:19:12 51°27.228 2°57.399 71.2 10.7 70 23.9
2005-10-18 08:20:11 51°27.289 2°57.667 71.2 11 70 21.6
2005-10-18 08:21:12 51°27.349 2°57.948 71.7 10.9 71 18.9
2005-10-18 08:22:11 51°27.411 2°58.219 70.9 11.1 69 17.2
2005-10-18 08:23:11 51°27.474 2°58.493 70.9 10.9 69 17.4
2005-10-18 08:24:12 51°27.538 2°58.775 71.3 11 69 17.7
2005-10-18 08:25:12 51°27.603 2°59.052 71.6 11.2 71 16.8
2005-10-18 08:26:11 51°27.665 2°59.324 70.5 11.1 69 19.2
2005-10-18 08:27:12 51°27.729 2°59.607 70.1 11 69 18.7
2005-10-18 08:28:11 51°27.791 2°59.879 70.6 11.1 69 17.3
2005-10-18 08:29:12 51°27.855 3°0.16 70.5 11 68 18.9
2005-10-18 08:30:12 51°27.918 3°0.434 71.2 11.1 70 21.1
2005-10-18 08:31:12 51°27.983 3°0.708 70.9 11 67 21.1
2005-10-18 08:32:12 51°28.047 3°0.984 72 11.1 70 21
2005-10-18 08:33:12 51°28.111 3°1.261 72.5 11.1 71 22.3
2005-10-18 08:34:11 51°28.176 3°1.529 71.4 11 70 22.9
2005-10-18 08:35:12 51°28.241 3°1.809 71.3 11 70 23.2
2005-10-18 08:36:12 51°28.306 3°2.083 71.2 11 68 23.1
2005-10-18 08:37:12 51°28.372 3°2.359 71.5 11.1 70 23.4
2005-10-18 08:38:11 51°28.439 3°2.624 67.4 10.9 63 23.2
2005-10-18 08:39:11 51°28.534 3°2.879 62.8 11.2 59 23.2
2005-10-18 08:40:12 51°28.64 3°3.119 50.2 11.1 42 23.3
2005-10-18 08:41:12 51°28.806 3°3.238 21.9 11.4 11 23.2
2005-10-18 08:42:12 51°29 3°3.268 13.9 11.8 3 22.8
2005-10-18 08:43:11 51°29.19 3°3.291 14.5 11.6 9 23
2005-10-18 08:44:12 51°29.388 3°3.311 12.4 11.7 358 22.4
2005-10-18 08:45:12 51°29.577 3°3.228 346.4 12.3 332 22.3
2005-10-18 08:46:11 51°29.727 3°3.006 323.7 13.1 307 24.1
2005-10-18 08:47:11 51°29.802 3°2.669 286.1 14.3 271 24.4
2005-10-18 08:48:11 51°29.78 3°2.278 268.5 15.2 262 23.7
2005-10-18 08:49:11 51°29.736 3°1.888 268 14.7 263 26.2
2005-10-18 08:50:11 51°29.708 3°1.501 273.8 14.6 262 26.2
2005-10-18 08:51:12 51°29.681 3°1.113 268.5 14.8 263 27.7
2005-10-18 08:52:11 51°29.642 3°0.738 268.1 14.3 264 28.2
2005-10-18 08:53:12 51°29.594 3°0.343 261.6 14.8 261 28.4
2005-10-18 08:54:11 51°29.529 2°59.967 261.3 14.8 256 28.4
2005-10-18 08:55:12 51°29.473 2°59.577 264.9 14.9 256 28.3
2005-10-18 08:56:12 51°29.411 2°59.196 261.3 14.8 257 27.9
2005-10-18 08:57:11 51°29.339 2°58.823 258.5 15 255 27.5
2005-10-18 08:58:12 51°29.252 2°58.443 255.5 15.1 249 26.8
2005-10-18 08:59:13 51°29.166 2°58.065 256.9 14.9 246 26.3
2005-10-18 09:00:11 51°29.083 2°57.704 257.2 15.1 251 25.9
2005-10-18 09:01:12 51°28.997 2°57.328 257.1 14.7 253 25.8
2005-10-18 09:02:11 51°28.915 2°56.973 254.8 14.3 247 25.1
2005-10-18 09:03:12 51°28.828 2°56.607 256 14.4 243 24.8
2005-10-18 09:04:12 51°28.748 2°56.245 255.3 14.9 245 22.9
2005-10-18 09:05:11 51°28.674 2°55.881 260.5 14.6 252 23.1
2005-10-18 09:06:12 51°28.599 2°55.505 259.6 14.1 249 22.6
2005-10-18 09:07:12 51°28.525 2°55.139 260.4 14.6 254 21
2005-10-18 09:08:12 51°28.46 2°54.761 262.7 14.9 254 20.5
2005-10-18 09:09:11 51°28.407 2°54.39 263 14.6 258 22
2005-10-18 09:10:12 51°28.349 2°53.999 265 14.5 256 21.8
2005-10-18 09:11:11 51°28.288 2°53.621 263.4 14.9 254 21.8
2005-10-18 09:12:12 51°28.224 2°53.222 263.6 15.5 255 22.5
2005-10-18 09:13:12 51°28.168 2°52.832 266 14.7 258 22.4
2005-10-18 09:14:11 51°28.109 2°52.442 261.1 15.4 256 22.4
2005-10-18 09:15:12 51°28.05 2°52.044 263.2 15.3 252 22.6
2005-10-18 09:16:11 51°27.998 2°51.667 265 14.7 257 24
2005-10-18 09:17:12 51°27.935 2°51.276 262.6 14.9 260 24.5
2005-10-18 09:18:12 51°27.882 2°50.878 267.1 15 260 25
2005-10-18 09:19:12 51°27.84 2°50.491 267 14.7 265 28.4
2005-10-18 09:20:12 51°27.795 2°50.099 265.8 14.9 260 29.1
2005-10-18 09:21:12 51°27.749 2°49.711 269.7 15 259 26.3
2005-10-18 09:22:13 51°27.703 2°49.309 267.1 15.2 260 26
2005-10-18 09:23:12 51°27.66 2°48.921 267 14.9 261 25.7
2005-10-18 09:24:12 51°27.612 2°48.535 261.8 14.7 257 27.4
2005-10-18 09:25:12 51°27.561 2°48.16 264.6 14.1 261 27.1
2005-10-18 09:26:11 51°27.507 2°47.786 263.5 14.3 260 27
2005-10-18 09:27:12 51°27.454 2°47.399 266.3 14.7 261 29.1
2005-10-18 09:28:12 51°27.399 2°47.018 263.9 14.7 257 30.3
2005-10-18 09:29:11 51°27.346 2°46.64 264.1 14.7 258 32.1
2005-10-18 09:30:11 51°27.291 2°46.261 264 14.7 260 29.9
2005-10-18 09:31:11 51°27.24 2°45.87 268 14.8 255 29.6
2005-10-18 09:32:12 51°27.191 2°45.472 266.5 14.7 260 28.3
2005-10-18 09:33:11 51°27.138 2°45.092 263.8 14.9 255 28.7
2005-10-18 09:34:12 51°27.087 2°44.697 263.7 14.8 257 28
2005-10-18 09:35:11 51°27.126 2°44.36 322 12.2 316 26.2
2005-10-18 09:36:11 51°27.309 2°44.203 348.6 12.3 340 27.1
2005-10-18 09:37:11 51°27.502 2°44.081 348.9 12.7 336 28.6
2005-10-18 09:38:11 51°27.695 2°43.956 349.1 12.5 337 27.4
2005-10-18 09:39:11 51°27.889 2°43.836 350.2 12.4 339 30.6
2005-10-18 09:40:11 51°28.08 2°43.721 350.5 12.4 341 31.5
2005-10-18 09:41:11 51°28.271 2°43.601 348.6 12.4 342 32.5
2005-10-18 09:42:11 51°28.465 2°43.487 349.1 12.5 337 31.1
2005-10-18 09:43:11 51°28.658 2°43.387 -999 11.5 353 28.7
2005-10-18 09:44:12 51°28.789 2°43.566 63.3 11 64 31.3
2005-10-18 09:45:11 51°28.846 2°43.846 75.1 11.4 74 28.3
2005-10-18 09:46:12 51°28.902 2°44.139 74.5 11.4 73 28.4
2005-10-18 09:47:11 51°28.957 2°44.429 74 11.7 75 28.8
2005-10-18 09:48:11 51°29.012 2°44.72 74.2 11.5 75 29.3
2005-10-18 09:49:11 51°29.074 2°45.005 69.3 11.5 67 27.5
2005-10-18 09:50:12 51°29.139 2°45.301 74.7 11.5 72 26.7
2005-10-18 09:51:11 51°29.197 2°45.592 71.3 11.7 67 25.3
2005-10-18 09:52:13 51°29.265 2°45.885 70.6 11.3 69 25.7
2005-10-18 09:53:12 51°29.33 2°46.166 72.7 11.1 71 24.1
2005-10-18 09:54:11 51°29.394 2°46.447 71 11.4 70 21.6
2005-10-18 09:55:11 51°29.458 2°46.732 71.8 11.3 70 26.2
2005-10-18 09:56:11 51°29.527 2°47.009 69.8 11.2 61 22.4
2005-10-18 09:57:12 51°29.685 2°47.162 24.3 11.4 15 22.6
2005-10-18 09:58:11 51°29.875 2°47.14 3.3 11.5 353 25.8
2005-10-18 09:59:13 51°30.073 2°47.09 356.1 11.8 346 25
2005-10-18 10:00:13 51°30.236 2°46.886 319.3 12.8 312 26.8
2005-10-18 10:01:12 51°30.216 2°46.558 247.6 14 241 25.6
2005-10-18 10:02:12 51°30.113 2°46.222 248.9 14.6 246 26.2
2005-10-18 10:03:12 51°30.012 2°45.878 251.3 14.3 244 28.5
2005-10-18 10:04:11 51°29.916 2°45.545 251.2 14.1 251 28.9
2005-10-18 10:05:12 51°29.809 2°45.201 246.8 14.5 245 30.6
2005-10-18 10:06:11 51°29.698 2°44.873 245.6 14.1 244 29.5
2005-10-18 10:07:12 51°29.575 2°44.546 241.1 14.1 238 31.4
2005-10-18 10:08:12 51°29.438 2°44.239 238.7 14.1 234 31.3
2005-10-18 10:09:12 51°29.298 2°43.935 237 14.1 237 31.4
2005-10-18 10:10:11 51°29.163 2°43.633 237.1 14.6 231 30.4
2005-10-18 10:11:11 51°29.023 2°43.331 237.3 14.1 231 31.5
2005-10-18 10:12:11 51°28.887 2°43.024 238 14.3 240 29.3
2005-10-18 10:13:13 51°28.742 2°42.704 238.2 14.3 234 31.6
2005-10-18 10:14:13 51°28.593 2°42.41 231.9 14.2 225 32.2
2005-10-18 10:15:11 51°28.415 2°42.187 213.5 14.1 207 31.9
2005-10-18 10:16:11 51°28.196 2°42.092 186.9 14 189 31.1
2005-10-18 10:17:12 51°27.968 2°42.11 169.1 13.8 171 31.9
2005-10-18 10:18:12 51°27.748 2°42.167 167.4 13.6 167 31.6
2005-10-18 10:19:11 51°27.533 2°42.234 167.1 13.6 170 31.5
2005-10-18 10:20:11 51°27.317 2°42.309 168.1 13.3 164 31.6
2005-10-18 10:21:13 51°27.092 2°42.382 167.6 13.2 170 31.7
2005-10-18 10:22:11 51°26.883 2°42.45 167.5 13.1 167 32.1
2005-10-18 10:23:13 51°26.66 2°42.516 166.8 13.1 168 30.5
2005-10-18 10:24:11 51°26.456 2°42.595 166.1 12.7 163 29.2
2005-10-18 10:25:12 51°26.241 2°42.68 165.3 13.2 169 28.2
2005-10-18 10:26:11 51°26.034 2°42.774 161.2 13.3 160 27.2
2005-10-18 10:27:11 51°25.823 2°42.874 164.2 13.3 163 27.4
2005-10-18 10:28:13 51°25.606 2°42.976 161.8 13.2 164 26.6
2005-10-18 10:29:13 51°25.395 2°43.08 162.2 13.4 162 24.7
2005-10-18 10:30:12 51°25.185 2°43.18 163.6 13.4 164 24.4
2005-10-18 10:31:13 51°24.969 2°43.279 163.3 13.6 165 23.5
2005-10-18 10:32:11 51°24.765 2°43.386 163.9 13.5 159 22.3
2005-10-18 10:33:11 51°24.553 2°43.495 162.6 13.4 162 26
2005-10-18 10:34:11 51°24.343 2°43.599 161.6 13.2 166 23.7
2005-10-18 10:35:11 51°24.133 2°43.704 163.3 13.1 165 28.2
2005-10-18 10:36:12 51°23.918 2°43.808 162.9 13.1 159 24.4
2005-10-18 10:37:11 51°23.712 2°43.905 164.5 13 164 23.7
2005-10-18 10:38:13 51°23.495 2°44.01 164.5 13.1 162 27.4
2005-10-18 10:39:13 51°23.285 2°44.106 165.2 13.1 165 27.2
2005-10-18 10:40:13 51°23.075 2°44.195 163.9 13.1 162 28.4
2005-10-18 10:41:13 51°22.866 2°44.287 163.3 13 163 27.3
2005-10-18 10:42:13 51°22.657 2°44.385 164 13.2 163 26.2
2005-10-18 10:43:12 51°22.451 2°44.484 163.7 13 159 27.7
2005-10-18 10:44:12 51°22.241 2°44.587 163.2 13.2 160 25.3
2005-10-18 10:45:13 51°22.027 2°44.696 163.2 13.1 162 24.5
2005-10-18 10:46:11 51°21.824 2°44.801 165.8 13.4 159 23.9
2005-10-18 10:47:12 51°21.617 2°44.928 160 13.3 157 24.6
2005-10-18 10:48:13 51°21.408 2°45.063 160.4 13.5 159 26.2
2005-10-18 10:49:13 51°21.206 2°45.195 161.2 13 164 27.8
2005-10-18 10:50:11 51°21.013 2°45.327 159.7 12.9 154 28
2005-10-18 10:51:11 51°20.813 2°45.459 161.6 13 159 28.1
2005-10-18 10:52:11 51°20.619 2°45.61 154.5 12.9 151 26.3
2005-10-18 10:53:11 51°20.437 2°45.796 148.7 12.7 144 24.1
2005-10-18 10:54:11 51°20.262 2°46.006 147.4 13.2 139 18
2005-10-18 10:55:11 51°20.085 2°46.214 147.8 13.1 139 14.6
2005-10-18 10:56:11 51°19.906 2°46.422 147.4 13.1 147 15.6
2005-10-18 10:57:12 51°19.726 2°46.636 148 13.2 143 21.2
2005-10-18 10:58:13 51°19.545 2°46.843 149.2 13.1 144 23.3
2005-10-18 10:59:12 51°19.37 2°47.036 148.7 13.2 144 23.4
2005-10-18 11:00:11 51°19.197 2°47.231 147.3 12.9 147 23
2005-10-18 11:01:12 51°19.018 2°47.434 148.1 13 144 21.9
2005-10-18 11:02:12 51°18.841 2°47.636 148.2 13 144 20
2005-10-18 11:03:12 51°18.663 2°47.839 146.6 13.2 142 17.2
2005-10-18 11:04:13 51°18.485 2°48.052 148 13.3 144 15.6
2005-10-18 11:05:13 51°18.306 2°48.254 150.6 13.1 148 13
2005-10-18 11:06:13 51°18.126 2°48.459 149 13.4 142 12.7
2005-10-18 11:07:12 51°17.946 2°48.653 150.6 12.9 147 12.4
2005-10-18 11:08:12 51°17.765 2°48.85 152.6 13.3 147 13.5
2005-10-18 11:09:13 51°17.58 2°49.045 152.7 13.2 149 13
2005-10-18 11:10:12 51°17.404 2°49.233 152.7 12.7 148 14.2
2005-10-18 11:11:13 51°17.216 2°49.416 153.4 13 146 14.6
2005-10-18 11:12:13 51°17.033 2°49.595 155.5 13.4 147 12.1
2005-10-18 11:13:11 51°16.861 2°49.739 163.1 9.7 156 12.7
2005-10-18 11:14:12 51°16.754 2°49.8 171.1 5.2 160 15.1
2005-10-18 11:15:12 51°16.69 2°49.829 183.5 3.6 171 16.5
2005-10-18 11:16:12 51°16.654 2°49.834 214.5 1.1 56 18
2005-10-18 11:17:13 51°16.655 2°49.826 256.3 0.7 265 18.6
2005-10-18 11:18:12 51°16.659 2°49.827 240.9 0.1 293 18.6
2005-10-18 11:19:13 51°16.656 2°49.825 224.3 0.5 66 18.7
2005-10-18 11:20:13 51°16.662 2°49.838 225.1 0.3 159 18.3
2005-10-18 11:21:13 51°16.651 2°49.823 242.6 0.5 240 18.3
2005-10-18 11:22:12 51°16.656 2°49.828 245.2 0.6 35 18.7
2005-10-18 11:23:13 51°16.66 2°49.83 229.3 0.2 244 18.7
2005-10-18 11:24:13 51°16.661 2°49.836 218.4 0.1 186 18.5
2005-10-18 11:25:12 51°16.658 2°49.829 245.4 0.5 41 18.7
2005-10-18 11:26:13 51°16.659 2°49.824 226.7 0.1 182 18.9
2005-10-18 11:27:13 51°16.687 2°49.865 225.2 2.9 43 -999
2005-10-18 11:28:13 51°16.672 2°49.872 191.7 3.6 178 17.6
2005-10-18 11:29:12 51°16.564 2°49.928 168 8.4 156 15
2005-10-18 11:30:13 51°16.41 2°50.071 151.7 12.4 141 13.9
2005-10-18 11:31:12 51°16.266 2°50.33 136 13.6 127 12.9
2005-10-18 11:32:13 51°16.127 2°50.626 136.4 13.8 127 12.9
2005-10-18 11:33:11 51°15.991 2°50.9 135.6 13.7 124 15.8
2005-10-18 11:34:12 51°15.87 2°51.217 130.9 13.6 122 15.8
2005-10-18 11:35:11 51°15.752 2°51.518 131.3 13.4 122 15.9
2005-10-18 11:36:11 51°15.63 2°51.817 132.6 13.6 124 15.5
2005-10-18 11:37:13 51°15.499 2°52.119 134.2 13.5 124 15.2
2005-10-18 11:38:11 51°15.374 2°52.404 135.6 13.7 127 14.4
2005-10-18 11:39:11 51°15.243 2°52.693 135.9 13.5 124 13.8
2005-10-18 11:40:11 51°15.112 2°52.98 134.6 13.4 127 13.2
2005-10-18 11:41:11 51°14.985 2°53.261 135.2 11.9 122 13
2005-10-18 11:42:13 51°14.883 2°53.496 135.9 9.9 123 12.8
2005-10-18 11:43:12 51°14.803 2°53.694 135.5 7.8 119 12.9
2005-10-18 11:44:12 51°14.748 2°53.847 136.4 6.2 120 13.2
2005-10-18 11:45:11 51°14.698 2°53.977 137.9 5.7 119 13.7
2005-10-18 11:46:11 51°14.663 2°54.119 129.1 5.9 107 13.8
2005-10-18 11:47:11 51°14.626 2°54.251 153.1 4.9 128 13.7
2005-10-18 11:48:11 51°14.56 2°54.353 157.4 5.8 136 13.6
2005-10-18 11:49:12 51°14.489 2°54.443 175.5 5.4 157 13.4
2005-10-18 11:50:12 51°14.409 2°54.427 219.9 4.8 213 13.1
2005-10-18 11:51:12 51°14.379 2°54.311 263.5 5.4 272 12.9
2005-10-18 11:52:12 51°14.458 2°54.253 357.6 6.8 12 13.1
2005-10-18 11:53:13 51°14.52 2°54.408 101.1 7.2 90 13.5
2005-10-18 11:54:12 51°14.457 2°54.672 126.5 12.6 114 13.4
2005-10-18 11:55:12 51°14.378 2°54.987 122.9 12.5 112 13.1
2005-10-18 11:56:13 51°14.267 2°55.244 131.7 11 128 -999
2005-10-18 11:57:12 51°14.145 2°55.392 156 7.6 154 13.4
2005-10-18 11:58:12 51°14.045 2°55.464 157.4 6.6 157 13.3
2005-10-18 11:59:12 51°13.943 2°55.538 156.5 6.7 154 13.2
2005-10-18 12:00:12 51°13.842 2°55.618 155.6 6.8 153 12.9
2005-10-18 12:01:12 51°13.745 2°55.723 140.9 7.2 139 12.6
2005-10-18 12:02:12 51°13.675 2°55.865 126.6 5.8 123 12.1
2005-10-18 12:03:12 51°13.631 2°55.972 126 4.4 122 12.6
2005-10-18 12:04:12 51°13.612 2°56.055 114 2.3 106 12.4
2005-10-18 12:05:12 51°13.602 2°56.098 120.4 0.5 117 9.4
2005-10-18 12:06:12 51°13.601 2°56.1 123.4 -999 136 9.4
2005-10-18 12:07:12 51°13.601 2°56.1 129.3 -999 169 9.4